createdAt,value
2023-03-01T00:01:44.719Z,100.00
2023-03-01T00:04:15.081Z,100.00
2023-03-01T00:06:47.136Z,100.00
2023-03-01T00:09:15.430Z,100.00
2023-03-01T00:11:43.022Z,100.00
2023-03-01T00:14:10.305Z,100.00
2023-03-01T00:16:41.929Z,100.00
2023-03-01T00:19:15.446Z,100.00
2023-03-01T00:21:42.806Z,100.00
2023-03-01T00:24:10.231Z,100.00
2023-03-01T00:26:37.621Z,100.00
2023-03-01T00:29:05.156Z,100.00
2023-03-01T00:31:33.711Z,100.00
2023-03-01T00:34:03.601Z,100.00
2023-03-01T00:36:36.415Z,100.00
2023-03-01T00:39:10.910Z,100.00
2023-03-01T00:41:38.157Z,100.00
2023-03-01T00:44:05.454Z,100.00
2023-03-01T00:46:35.267Z,100.00
2023-03-01T00:49:03.348Z,100.00
2023-03-01T00:51:31.313Z,100.00
2023-03-01T00:54:00.305Z,100.00
2023-03-01T00:56:28.436Z,100.00
2023-03-01T00:58:55.859Z,100.00
2023-03-01T01:01:28.246Z,100.00
2023-03-01T01:03:58.250Z,100.00
2023-03-01T01:06:48.047Z,100.00
2023-03-01T01:09:20.408Z,100.00
2023-03-01T01:11:48.963Z,100.00
2023-03-01T01:14:17.040Z,100.00
2023-03-01T01:16:44.832Z,100.00
2023-03-01T01:19:15.760Z,100.00
2023-03-01T01:21:46.001Z,100.00
2023-03-01T01:24:13.648Z,100.00
2023-03-01T01:26:41.066Z,100.00
2023-03-01T01:29:08.478Z,100.00
2023-03-01T01:31:36.733Z,100.00
2023-03-01T01:34:04.896Z,100.00
2023-03-01T01:36:32.947Z,100.00
2023-03-01T01:39:00.409Z,100.00
2023-03-01T01:41:28.528Z,100.00
2023-03-01T01:44:15.162Z,100.00
2023-03-01T01:47:05.249Z,100.00
2023-03-01T01:49:39.154Z,100.00
2023-03-01T01:52:17.838Z,100.00
2023-03-01T01:55:13.089Z,100.00
2023-03-01T01:57:46.036Z,100.00
2023-03-01T02:00:22.777Z,100.00
2023-03-01T02:02:55.949Z,100.00
2023-03-01T02:05:55.434Z,100.00
2023-03-01T02:08:24.835Z,100.00
2023-03-01T02:10:52.059Z,100.00
2023-03-01T02:13:20.692Z,100.00
2023-03-01T02:15:48.451Z,100.00
2023-03-01T02:18:22.018Z,100.00
2023-03-01T02:21:07.072Z,100.00
2023-03-01T02:23:34.319Z,100.00
2023-03-01T02:26:42.437Z,100.00
2023-03-01T02:29:09.684Z,100.00
2023-03-01T02:31:45.867Z,100.00
2023-03-01T02:34:21.568Z,100.00
2023-03-01T02:37:10.551Z,100.00
2023-03-01T02:39:43.061Z,100.00
2023-03-01T02:42:26.193Z,100.00
2023-03-01T02:44:55.048Z,100.00
2023-03-01T02:47:22.357Z,100.00
2023-03-01T02:49:50.041Z,100.00
2023-03-01T02:52:41.021Z,100.00
2023-03-01T02:55:14.067Z,100.00
2023-03-01T02:57:44.045Z,100.00
2023-03-01T03:00:24.567Z,100.00
2023-03-01T03:02:53.096Z,100.00
2023-03-01T03:05:22.248Z,100.00
2023-03-01T03:07:53.218Z,100.00
2023-03-01T03:10:26.540Z,100.00
2023-03-01T03:12:57.258Z,100.00
2023-03-01T03:15:25.934Z,100.00
2023-03-01T03:17:53.653Z,100.00
2023-03-01T03:20:22.697Z,100.00
2023-03-01T03:22:52.140Z,100.00
2023-03-01T03:25:19.511Z,100.00
2023-03-01T03:27:48.156Z,100.00
2023-03-01T03:30:18.239Z,100.00
2023-03-01T03:32:54.349Z,100.00
2023-03-01T03:35:35.536Z,100.00
2023-03-01T03:38:07.415Z,100.00
2023-03-01T03:40:35.452Z,100.00
2023-03-01T03:43:04.088Z,100.00
2023-03-01T03:45:37.458Z,100.00
2023-03-01T03:48:06.472Z,100.00
2023-03-01T03:50:33.859Z,100.00
2023-03-01T03:53:02.445Z,100.00
2023-03-01T03:55:31.671Z,100.00
2023-03-01T03:58:02.390Z,100.00
2023-03-01T04:00:29.820Z,100.00
2023-03-01T04:02:57.582Z,100.00
2023-03-01T04:05:25.097Z,100.00
2023-03-01T04:08:02.010Z,100.00
2023-03-01T04:10:31.458Z,100.00
2023-03-01T04:12:59.169Z,100.00
2023-03-01T04:15:26.930Z,100.00
2023-03-01T04:17:54.634Z,100.00
2023-03-01T04:20:26.991Z,100.00
2023-03-01T04:23:00.750Z,100.00
2023-03-01T04:25:28.035Z,100.00
2023-03-01T04:27:55.312Z,100.00
2023-03-01T04:30:26.415Z,100.00
2023-03-01T04:32:54.302Z,100.00
2023-03-01T04:35:21.737Z,100.00
2023-03-01T04:37:48.936Z,100.00
2023-03-01T04:40:17.628Z,100.00
2023-03-01T04:42:44.873Z,100.00
2023-03-01T04:45:15.032Z,100.00
2023-03-01T04:47:46.948Z,100.00
2023-03-01T04:50:16.963Z,100.00
2023-03-01T04:52:44.858Z,100.00
2023-03-01T04:55:12.305Z,100.00
2023-03-01T04:57:40.543Z,100.00
2023-03-01T05:00:23.364Z,100.00
2023-03-01T05:02:54.655Z,100.00
2023-03-01T05:05:26.663Z,100.00
2023-03-01T05:08:18.311Z,100.00
2023-03-01T05:10:50.056Z,100.00
2023-03-01T05:13:22.007Z,100.00
2023-03-01T05:15:56.752Z,100.00
2023-03-01T05:18:27.562Z,100.00
2023-03-01T05:20:57.294Z,100.00
2023-03-01T05:23:25.455Z,100.00
2023-03-01T05:25:53.489Z,100.00
2023-03-01T05:28:21.152Z,100.00
2023-03-01T05:30:48.459Z,100.00
2023-03-01T05:33:15.981Z,100.00
2023-03-01T05:35:43.873Z,100.00
2023-03-01T05:38:14.214Z,100.00
2023-03-01T05:40:45.360Z,100.00
2023-03-01T05:43:13.722Z,100.00
2023-03-01T05:45:43.249Z,100.00
2023-03-01T05:48:11.174Z,100.00
2023-03-01T05:50:40.345Z,100.00
2023-03-01T05:53:10.780Z,100.00
2023-03-01T05:55:38.188Z,100.00
2023-03-01T05:58:07.064Z,100.00
2023-03-01T06:00:35.759Z,100.00
2023-03-01T06:03:05.063Z,100.00
2023-03-01T06:05:33.912Z,100.00
2023-03-01T06:08:01.728Z,100.00
2023-03-01T06:10:29.068Z,100.00
2023-03-01T06:12:56.466Z,100.00
2023-03-01T06:15:31.449Z,100.00
2023-03-01T06:18:00.305Z,100.00
2023-03-01T06:20:28.630Z,100.00
2023-03-01T06:22:57.063Z,100.00
2023-03-01T06:25:25.739Z,100.00
2023-03-01T06:27:55.963Z,100.00
2023-03-01T06:30:24.323Z,100.00
2023-03-01T06:32:53.781Z,100.00
2023-03-01T06:35:21.180Z,99.31
2023-03-01T06:37:48.899Z,98.54
2023-03-01T06:40:16.387Z,99.23
2023-03-01T06:42:45.371Z,98.81
2023-03-01T06:45:13.961Z,98.29
2023-03-01T06:47:41.494Z,98.31
2023-03-01T06:50:09.504Z,97.24
2023-03-01T06:52:36.842Z,96.20
2023-03-01T06:55:05.674Z,96.50
2023-03-01T06:57:32.907Z,94.88
2023-03-01T07:00:00.256Z,93.95
2023-03-01T07:02:27.576Z,93.04
2023-03-01T07:04:55.050Z,92.03
2023-03-01T07:07:22.305Z,91.71
2023-03-01T07:09:50.474Z,91.08
2023-03-01T07:12:17.956Z,91.17
2023-03-01T07:14:45.274Z,89.79
2023-03-01T07:17:12.593Z,89.30
2023-03-01T07:19:39.975Z,88.18
2023-03-01T07:22:08.962Z,87.86
2023-03-01T07:24:36.397Z,85.14
2023-03-01T07:27:03.723Z,79.55
2023-03-01T07:29:32.293Z,64.65
2023-03-01T07:32:00.946Z,47.23
2023-03-01T07:34:28.556Z,42.82
2023-03-01T07:36:56.386Z,40.93
2023-03-01T07:39:26.537Z,39.18
2023-03-01T07:41:53.869Z,37.96
2023-03-01T07:44:21.223Z,38.92
2023-03-01T07:46:48.791Z,38.34
2023-03-01T07:49:16.134Z,37.60
2023-03-01T07:51:44.516Z,36.82
2023-03-01T07:54:12.601Z,37.02
2023-03-01T07:56:41.733Z,35.88
2023-03-01T07:59:09.056Z,36.78
2023-03-01T08:01:36.641Z,36.88
2023-03-01T08:04:05.755Z,40.10
2023-03-01T08:06:35.503Z,41.90
2023-03-01T08:09:03.229Z,41.36
2023-03-01T08:11:31.376Z,39.99
2023-03-01T08:14:18.518Z,40.44
2023-03-01T08:16:50.518Z,40.90
2023-03-01T08:19:17.821Z,38.65
2023-03-01T08:21:45.140Z,38.92
2023-03-01T08:24:14.812Z,40.14
2023-03-01T08:26:42.560Z,41.25
2023-03-01T08:29:14.551Z,41.18
2023-03-01T08:31:42.168Z,41.60
2023-03-01T08:34:11.335Z,41.33
2023-03-01T08:36:43.203Z,40.54
2023-03-01T08:39:11.940Z,40.12
2023-03-01T08:41:39.435Z,38.50
2023-03-01T08:44:07.003Z,37.03
2023-03-01T08:46:38.132Z,36.25
2023-03-01T08:49:09.606Z,35.22
2023-03-01T08:51:37.909Z,35.43
2023-03-01T08:54:05.949Z,34.69
2023-03-01T08:56:34.704Z,34.20
2023-03-01T08:59:02.004Z,36.80
2023-03-01T09:01:29.654Z,38.73
2023-03-01T09:03:56.941Z,39.11
2023-03-01T09:06:32.304Z,41.54
2023-03-01T09:08:59.762Z,44.43
2023-03-01T09:11:27.654Z,47.44
2023-03-01T09:13:56.708Z,48.10
2023-03-01T09:16:25.232Z,43.95
2023-03-01T09:18:53.445Z,44.14
2023-03-01T09:21:38.634Z,42.99
2023-03-01T09:24:07.315Z,41.05
2023-03-01T09:26:34.575Z,39.80
2023-03-01T09:29:02.118Z,37.54
2023-03-01T09:31:29.616Z,39.88
2023-03-01T09:33:56.990Z,39.95
2023-03-01T09:36:26.264Z,38.69
2023-03-01T09:38:54.321Z,39.85
2023-03-01T09:41:46.817Z,39.20
2023-03-01T09:44:28.251Z,37.14
2023-03-01T09:46:58.102Z,36.28
2023-03-01T09:49:27.472Z,35.66
2023-03-01T09:52:14.817Z,36.54
2023-03-01T09:54:42.091Z,36.21
2023-03-01T09:57:39.794Z,36.94
2023-03-01T10:00:13.314Z,35.86
2023-03-01T10:03:14.617Z,35.24
2023-03-01T10:05:56.778Z,34.69
2023-03-01T10:09:03.731Z,35.78
2023-03-01T10:11:38.421Z,36.31
2023-03-01T10:14:24.478Z,36.43
2023-03-01T10:16:53.670Z,34.68
2023-03-01T10:19:32.706Z,36.06
2023-03-01T10:22:22.178Z,35.53
2023-03-01T10:24:52.267Z,37.42
2023-03-01T10:27:35.873Z,37.84
2023-03-01T10:30:17.677Z,37.45
2023-03-01T10:32:45.490Z,37.18
2023-03-01T10:35:24.601Z,40.26
2023-03-01T10:38:18.092Z,40.82
2023-03-01T10:40:53.943Z,41.59
2023-03-01T10:43:22.545Z,40.92
2023-03-01T10:45:49.832Z,39.80
2023-03-01T10:48:27.210Z,41.86
2023-03-01T10:51:00.426Z,42.18
2023-03-01T10:53:39.207Z,42.62
2023-03-01T10:56:08.111Z,43.30
2023-03-01T10:58:36.526Z,42.85
2023-03-01T11:01:15.770Z,43.76
2023-03-01T11:03:43.433Z,44.75
2023-03-01T11:06:13.697Z,46.53
2023-03-01T11:08:48.582Z,47.78
2023-03-01T11:11:22.894Z,46.25
2023-03-01T11:14:27.950Z,43.20
2023-03-01T11:17:01.323Z,43.29
2023-03-01T11:19:28.465Z,39.93
2023-03-01T11:22:04.954Z,38.77
2023-03-01T11:24:35.443Z,38.32
2023-03-01T11:27:04.583Z,39.89
2023-03-01T11:29:47.767Z,42.26
2023-03-01T11:32:15.763Z,43.62
2023-03-01T11:34:57.113Z,45.39
2023-03-01T11:37:37.018Z,46.00
2023-03-01T11:40:17.210Z,44.69
2023-03-01T11:42:54.735Z,43.61
2023-03-01T11:45:23.726Z,43.37
2023-03-01T11:47:53.968Z,43.64
2023-03-01T11:50:29.967Z,44.20
2023-03-01T11:53:09.342Z,44.50
2023-03-01T11:55:56.847Z,44.13
2023-03-01T11:58:46.885Z,43.13
2023-03-01T12:01:46.121Z,42.79
2023-03-01T12:04:38.508Z,43.96
2023-03-01T12:07:13.692Z,44.80
2023-03-01T12:10:27.557Z,45.65
2023-03-01T12:12:54.706Z,46.02
2023-03-01T12:15:31.422Z,46.47
2023-03-01T12:18:18.390Z,47.90
2023-03-01T12:20:57.815Z,53.11
2023-03-01T12:23:35.793Z,55.05
2023-03-01T12:26:09.397Z,57.19
2023-03-01T12:28:49.215Z,61.47
2023-03-01T12:31:31.388Z,59.75
2023-03-01T12:34:37.264Z,63.36
2023-03-01T12:37:13.983Z,67.23
2023-03-01T12:39:46.845Z,68.85
2023-03-01T12:42:16.882Z,70.74
2023-03-01T12:44:58.416Z,68.88
2023-03-01T12:47:48.819Z,70.17
2023-03-01T12:50:22.898Z,71.61
2023-03-01T12:52:59.452Z,73.48
2023-03-01T12:55:38.944Z,78.80
2023-03-01T12:58:47.205Z,80.17
2023-03-01T13:01:42.052Z,79.90
2023-03-01T13:04:37.842Z,81.61
2023-03-01T13:07:30.325Z,84.49
2023-03-01T13:10:19.418Z,85.05
2023-03-01T13:12:50.486Z,84.98
2023-03-01T13:15:23.903Z,84.91
2023-03-01T13:18:23.984Z,87.41
2023-03-01T13:20:52.595Z,87.19
2023-03-01T13:23:23.923Z,87.91
2023-03-01T13:25:59.898Z,88.98
2023-03-01T13:28:32.877Z,89.48
2023-03-01T13:31:00.128Z,90.71
2023-03-01T13:33:29.863Z,90.31
2023-03-01T13:35:58.643Z,90.24
2023-03-01T13:38:44.550Z,90.42
2023-03-01T13:41:39.619Z,91.01
2023-03-01T13:44:37.090Z,92.38
2023-03-01T13:47:07.468Z,89.86
2023-03-01T13:49:46.641Z,89.80
2023-03-01T13:52:40.540Z,89.64
2023-03-01T13:55:14.891Z,90.62
2023-03-01T13:57:44.276Z,90.65
2023-03-01T14:00:38.002Z,89.15
2023-03-01T14:03:34.549Z,90.55
2023-03-01T14:06:14.625Z,92.30
2023-03-01T14:08:43.154Z,90.50
2023-03-01T14:11:46.964Z,91.74
2023-03-01T14:14:26.982Z,93.92
2023-03-01T14:17:21.761Z,95.25
2023-03-01T14:19:49.243Z,94.79
2023-03-01T14:22:25.798Z,95.64
2023-03-01T14:25:02.427Z,94.52
2023-03-01T14:27:42.893Z,96.39
2023-03-01T14:30:20.334Z,97.71
2023-03-01T14:32:58.135Z,97.29
2023-03-01T14:35:28.338Z,97.87
2023-03-01T14:37:55.773Z,98.46
2023-03-01T14:40:24.980Z,98.16
2023-03-01T14:42:52.304Z,98.81
2023-03-01T14:45:28.124Z,100.00
2023-03-01T14:47:56.742Z,100.00
2023-03-01T14:50:42.726Z,99.59
2023-03-01T14:53:25.168Z,99.48
2023-03-01T14:55:56.230Z,99.23
2023-03-01T14:58:25.164Z,100.00
2023-03-01T15:00:55.417Z,100.00
2023-03-01T15:03:35.977Z,100.00
2023-03-01T15:06:03.291Z,100.00
2023-03-01T15:08:34.026Z,100.00
2023-03-01T15:11:09.024Z,100.00
2023-03-01T15:13:37.041Z,100.00
2023-03-01T15:16:12.299Z,100.00
2023-03-01T15:19:00.098Z,100.00
2023-03-01T15:21:32.180Z,100.00
2023-03-01T15:24:05.632Z,100.00
2023-03-01T15:26:44.129Z,100.00
2023-03-01T15:29:22.581Z,100.00
2023-03-01T15:32:01.012Z,100.00
2023-03-01T15:34:35.572Z,100.00
2023-03-01T15:37:06.768Z,100.00
2023-03-01T15:39:44.743Z,100.00
2023-03-01T15:42:45.241Z,100.00
2023-03-01T15:45:18.507Z,100.00
2023-03-01T15:47:49.878Z,100.00
2023-03-01T15:50:28.133Z,100.00
2023-03-01T15:52:56.293Z,100.00
2023-03-01T15:55:30.072Z,100.00
2023-03-01T15:58:25.227Z,100.00
2023-03-01T16:01:01.539Z,100.00
2023-03-01T16:03:29.739Z,100.00
2023-03-01T16:05:57.051Z,100.00
2023-03-01T16:08:24.477Z,100.00
2023-03-01T16:10:54.622Z,100.00
2023-03-01T16:13:22.764Z,100.00
2023-03-01T16:15:50.029Z,100.00
2023-03-01T16:18:17.350Z,100.00
2023-03-01T16:20:44.913Z,100.00
2023-03-01T16:23:17.978Z,100.00
2023-03-01T16:25:45.969Z,100.00
2023-03-01T16:28:15.166Z,100.00
2023-03-01T16:30:48.234Z,100.00
2023-03-01T16:33:26.446Z,100.00
2023-03-01T16:36:01.233Z,100.00
2023-03-01T16:38:29.657Z,100.00
2023-03-01T16:40:56.919Z,100.00
2023-03-01T16:43:24.566Z,100.00
2023-03-01T16:45:52.265Z,100.00
2023-03-01T16:48:19.710Z,100.00
2023-03-01T16:50:56.652Z,100.00
2023-03-01T16:53:45.621Z,100.00
2023-03-01T16:56:13.663Z,100.00
2023-03-01T16:58:41.110Z,100.00
2023-03-01T17:01:10.240Z,100.00
2023-03-01T17:03:37.678Z,100.00
2023-03-01T17:06:06.156Z,100.00
2023-03-01T17:08:34.583Z,100.00
2023-03-01T17:11:18.897Z,100.00
2023-03-01T17:13:56.502Z,100.00
2023-03-01T17:16:24.422Z,100.00
2023-03-01T17:18:51.703Z,100.00
2023-03-01T17:21:19.006Z,100.00
2023-03-01T17:23:47.154Z,100.00
2023-03-01T17:26:16.243Z,100.00
2023-03-01T17:28:44.107Z,100.00
2023-03-01T17:31:11.445Z,100.00
2023-03-01T17:33:38.967Z,100.00
2023-03-01T17:36:06.482Z,100.00
2023-03-01T17:38:33.930Z,100.00
2023-03-01T17:41:02.165Z,100.00
2023-03-01T17:43:36.040Z,100.00
2023-03-01T17:46:03.627Z,100.00
2023-03-01T17:48:31.016Z,100.00
2023-03-01T17:51:18.704Z,100.00
2023-03-01T17:53:46.290Z,100.00
2023-03-01T17:56:13.658Z,100.00
2023-03-01T17:58:40.942Z,100.00
2023-03-01T18:01:16.609Z,100.00
2023-03-01T18:03:47.730Z,100.00
2023-03-01T18:06:22.890Z,100.00
2023-03-01T18:08:52.310Z,100.00
2023-03-01T18:11:25.826Z,100.00
2023-03-01T18:13:55.338Z,100.00
2023-03-01T18:16:22.995Z,100.00
2023-03-01T18:18:54.182Z,100.00
2023-03-01T18:21:22.952Z,100.00
2023-03-01T18:23:50.212Z,100.00
2023-03-01T18:26:19.641Z,100.00
2023-03-01T18:28:50.823Z,100.00
2023-03-01T18:31:22.550Z,100.00
2023-03-01T18:33:51.790Z,100.00
2023-03-01T18:36:26.820Z,100.00
2023-03-01T18:38:56.201Z,100.00
2023-03-01T18:41:25.180Z,100.00
2023-03-01T18:43:53.477Z,100.00
2023-03-01T18:46:21.058Z,100.00
2023-03-01T18:48:49.236Z,100.00
2023-03-01T18:51:27.201Z,100.00
2023-03-01T18:53:59.398Z,100.00
2023-03-01T18:56:29.532Z,100.00
2023-03-01T18:58:57.589Z,100.00
2023-03-01T19:01:25.978Z,100.00
2023-03-01T19:03:53.434Z,100.00
2023-03-01T19:06:20.721Z,100.00
2023-03-01T19:08:48.121Z,100.00
2023-03-01T19:11:17.717Z,100.00
2023-03-01T19:13:45.899Z,100.00
2023-03-01T19:16:18.605Z,100.00
2023-03-01T19:18:54.576Z,100.00
2023-03-01T19:21:23.052Z,100.00
2023-03-01T19:23:51.819Z,100.00
2023-03-01T19:26:21.356Z,100.00
2023-03-01T19:28:48.654Z,100.00
2023-03-01T19:31:25.668Z,100.00
2023-03-01T19:33:59.470Z,100.00
2023-03-01T19:36:33.841Z,100.00
2023-03-01T19:39:02.529Z,100.00
2023-03-01T19:41:33.598Z,100.00
2023-03-01T19:44:04.609Z,100.00
2023-03-01T19:46:33.644Z,100.00
2023-03-01T19:49:03.072Z,100.00
2023-03-01T19:51:33.372Z,100.00
2023-03-01T19:54:00.750Z,100.00
2023-03-01T19:56:28.111Z,100.00
2023-03-01T19:59:00.716Z,100.00
2023-03-01T20:01:32.990Z,100.00
2023-03-01T20:04:01.580Z,100.00
2023-03-01T20:06:30.283Z,100.00
2023-03-01T20:08:58.653Z,100.00
2023-03-01T20:11:26.059Z,100.00
2023-03-01T20:13:53.375Z,100.00
2023-03-01T20:16:23.056Z,100.00
2023-03-01T20:18:50.341Z,100.00
2023-03-01T20:21:24.048Z,100.00
2023-03-01T20:23:52.243Z,100.00
2023-03-01T20:26:20.497Z,100.00
2023-03-01T20:28:48.698Z,100.00
2023-03-01T20:31:16.842Z,100.00
2023-03-01T20:33:46.226Z,100.00
2023-03-01T20:36:14.555Z,100.00
2023-03-01T20:38:42.134Z,100.00
2023-03-01T20:41:11.399Z,100.00
2023-03-01T20:43:42.105Z,100.00
2023-03-01T20:46:13.154Z,100.00
2023-03-01T20:48:43.087Z,100.00
2023-03-01T20:51:11.321Z,100.00
2023-03-01T20:53:41.638Z,100.00
2023-03-01T20:56:11.379Z,100.00
2023-03-01T20:58:39.705Z,100.00
2023-03-01T21:01:07.485Z,100.00
2023-03-01T21:03:35.148Z,100.00
2023-03-01T21:06:03.990Z,100.00
2023-03-01T21:08:34.686Z,100.00
2023-03-01T21:11:06.345Z,100.00
2023-03-01T21:13:35.050Z,100.00
2023-03-01T21:16:04.973Z,100.00
2023-03-01T21:18:38.198Z,100.00
2023-03-01T21:21:10.584Z,100.00
2023-03-01T21:23:39.596Z,100.00
2023-03-01T21:26:12.040Z,100.00
2023-03-01T21:28:39.585Z,100.00
2023-03-01T21:31:14.029Z,100.00
2023-03-01T21:33:44.510Z,100.00
2023-03-01T21:36:12.943Z,100.00
2023-03-01T21:38:41.944Z,100.00
2023-03-01T21:41:17.519Z,100.00
2023-03-01T21:43:46.954Z,100.00
2023-03-01T21:46:16.599Z,100.00
2023-03-01T21:48:45.846Z,100.00
2023-03-01T21:51:14.911Z,100.00
2023-03-01T21:53:42.702Z,100.00
2023-03-01T21:56:10.453Z,100.00
2023-03-01T21:58:37.737Z,100.00
2023-03-01T22:01:10.013Z,100.00
2023-03-01T22:03:45.431Z,100.00
2023-03-01T22:06:20.621Z,100.00
2023-03-01T22:08:50.196Z,100.00
2023-03-01T22:11:18.695Z,100.00
2023-03-01T22:13:49.333Z,100.00
2023-03-01T22:16:16.861Z,100.00
2023-03-01T22:18:44.393Z,100.00
2023-03-01T22:21:11.976Z,100.00
2023-03-01T22:23:41.442Z,100.00
2023-03-01T22:26:09.340Z,100.00
2023-03-01T22:28:36.667Z,100.00
2023-03-01T22:31:06.932Z,100.00
2023-03-01T22:33:34.242Z,100.00
2023-03-01T22:36:01.511Z,100.00
2023-03-01T22:38:29.208Z,100.00
2023-03-01T22:40:59.135Z,100.00
2023-03-01T22:43:26.487Z,100.00
2023-03-01T22:45:53.857Z,100.00
2023-03-01T22:48:21.662Z,100.00
2023-03-01T22:50:48.960Z,100.00
2023-03-01T22:53:16.523Z,100.00
2023-03-01T22:55:44.391Z,100.00
2023-03-01T22:58:11.739Z,100.00
2023-03-01T23:00:38.999Z,100.00
2023-03-01T23:03:06.403Z,100.00
2023-03-01T23:05:34.150Z,100.00
2023-03-01T23:08:02.839Z,100.00
2023-03-01T23:10:30.625Z,100.00
2023-03-01T23:12:57.848Z,100.00
2023-03-01T23:15:29.828Z,100.00
2023-03-01T23:17:57.602Z,100.00
2023-03-01T23:20:24.853Z,100.00
2023-03-01T23:22:52.397Z,100.00
2023-03-01T23:25:19.620Z,100.00
2023-03-01T23:27:46.963Z,100.00
2023-03-01T23:30:14.756Z,100.00
2023-03-01T23:32:42.142Z,100.00
2023-03-01T23:35:10.698Z,100.00
2023-03-01T23:37:38.255Z,100.00
2023-03-01T23:40:06.602Z,100.00
2023-03-01T23:42:34.356Z,100.00
2023-03-01T23:45:03.903Z,100.00
2023-03-01T23:47:31.862Z,100.00
2023-03-01T23:50:03.295Z,100.00
2023-03-01T23:52:31.264Z,100.00
2023-03-01T23:54:58.872Z,100.00
2023-03-01T23:57:28.653Z,100.00
2023-03-01T23:59:56.009Z,100.00
